createdAt,value
2023-02-22T00:01:02.170Z,2.47
2023-02-22T00:03:32.599Z,2.50
2023-02-22T00:06:05.177Z,4.65
2023-02-22T00:08:34.299Z,3.35
2023-02-22T00:11:03.270Z,2.60
2023-02-22T00:13:30.462Z,4.45
2023-02-22T00:15:58.100Z,3.38
2023-02-22T00:18:28.056Z,3.20
2023-02-22T00:21:02.191Z,4.05
2023-02-22T00:23:30.605Z,3.38
2023-02-22T00:25:59.655Z,3.05
2023-02-22T00:28:26.561Z,2.97
2023-02-22T00:30:55.012Z,2.83
2023-02-22T00:33:22.364Z,2.70
2023-02-22T00:35:49.345Z,3.03
2023-02-22T00:38:18.082Z,2.65
2023-02-22T00:40:45.553Z,2.80
2023-02-22T00:43:12.518Z,2.47
2023-02-22T00:45:41.038Z,2.65
2023-02-22T00:48:08.670Z,2.35
2023-02-22T00:50:35.820Z,2.75
2023-02-22T00:53:06.303Z,3.28
2023-02-22T00:55:35.245Z,2.53
2023-02-22T00:58:02.322Z,2.45
2023-02-22T01:00:33.650Z,3.05
2023-02-22T01:03:00.367Z,2.83
2023-02-22T01:05:29.993Z,2.83
2023-02-22T01:07:57.879Z,2.53
2023-02-22T01:10:27.055Z,2.78
2023-02-22T01:12:54.575Z,3.03
2023-02-22T01:15:22.880Z,3.45
2023-02-22T01:17:51.399Z,2.72
2023-02-22T01:20:18.837Z,3.05
2023-02-22T01:22:47.558Z,2.00
2023-02-22T01:25:18.613Z,2.83
2023-02-22T01:27:45.288Z,2.67
2023-02-22T01:30:13.915Z,3.03
2023-02-22T01:32:42.157Z,2.90
2023-02-22T01:35:13.763Z,3.10
2023-02-22T01:37:40.999Z,2.80
2023-02-22T01:40:10.092Z,3.15
2023-02-22T01:42:37.283Z,2.80
2023-02-22T01:45:35.334Z,2.38
2023-02-22T01:48:30.149Z,3.15
2023-02-22T01:51:18.796Z,2.80
2023-02-22T01:53:55.970Z,2.92
2023-02-22T01:56:24.027Z,2.33
2023-02-22T01:58:59.582Z,2.67
2023-02-22T02:01:26.500Z,2.78
2023-02-22T02:03:58.323Z,2.45
2023-02-22T02:06:25.560Z,2.55
2023-02-22T02:09:05.004Z,2.30
2023-02-22T02:11:32.615Z,2.53
2023-02-22T02:14:00.082Z,2.45
2023-02-22T02:16:46.723Z,2.70
2023-02-22T02:19:23.863Z,2.35
2023-02-22T02:22:21.428Z,2.45
2023-02-22T02:25:24.500Z,2.60
2023-02-22T02:28:16.224Z,2.45
2023-02-22T02:31:19.609Z,2.55
2023-02-22T02:33:56.072Z,3.10
2023-02-22T02:36:31.146Z,2.10
2023-02-22T02:39:07.195Z,2.88
2023-02-22T02:41:42.031Z,3.25
2023-02-22T02:44:15.903Z,2.65
2023-02-22T02:46:53.329Z,2.92
2023-02-22T02:49:25.495Z,2.53
2023-02-22T02:51:54.144Z,2.60
2023-02-22T02:54:22.351Z,2.78
2023-02-22T02:56:52.267Z,3.08
2023-02-22T02:59:26.315Z,3.65
2023-02-22T03:02:16.226Z,2.92
2023-02-22T03:05:16.410Z,2.03
2023-02-22T03:08:03.488Z,2.20
2023-02-22T03:10:50.503Z,2.20
2023-02-22T03:13:26.113Z,2.35
2023-02-22T03:16:15.221Z,2.60
2023-02-22T03:18:51.918Z,2.40
2023-02-22T03:21:24.511Z,2.40
2023-02-22T03:24:14.926Z,2.45
2023-02-22T03:26:53.572Z,2.90
2023-02-22T03:29:21.953Z,2.47
2023-02-22T03:31:52.382Z,3.30
2023-02-22T03:34:26.651Z,2.58
2023-02-22T03:37:01.183Z,2.72
2023-02-22T03:39:31.399Z,2.70
2023-02-22T03:42:10.164Z,2.40
2023-02-22T03:44:38.797Z,2.53
2023-02-22T03:47:09.950Z,2.63
2023-02-22T03:49:40.972Z,2.35
2023-02-22T03:52:08.074Z,2.75
2023-02-22T03:54:35.969Z,2.70
2023-02-22T03:57:14.348Z,2.70
2023-02-22T03:59:43.191Z,2.58
2023-02-22T04:02:10.981Z,2.40
2023-02-22T04:04:37.962Z,2.45
2023-02-22T04:07:04.869Z,2.92
2023-02-22T04:09:32.854Z,2.63
2023-02-22T04:11:59.825Z,3.13
2023-02-22T04:14:29.543Z,2.47
2023-02-22T04:16:57.534Z,3.13
2023-02-22T04:19:24.232Z,2.80
2023-02-22T04:21:51.921Z,2.25
2023-02-22T04:24:22.433Z,2.63
2023-02-22T04:26:50.396Z,3.45
2023-02-22T04:29:17.658Z,2.35
2023-02-22T04:31:45.206Z,3.08
2023-02-22T04:34:12.083Z,3.03
2023-02-22T04:36:42.514Z,2.80
2023-02-22T04:39:09.779Z,2.90
2023-02-22T04:41:36.429Z,2.53
2023-02-22T04:44:03.284Z,2.70
2023-02-22T04:46:31.690Z,3.03
2023-02-22T04:49:01.551Z,2.63
2023-02-22T04:51:31.073Z,2.63
2023-02-22T04:54:01.082Z,2.78
2023-02-22T04:56:28.221Z,2.85
2023-02-22T04:58:54.908Z,2.78
2023-02-22T05:01:21.630Z,2.55
2023-02-22T05:03:48.505Z,2.78
2023-02-22T05:06:18.510Z,2.92
2023-02-22T05:08:45.156Z,2.88
2023-02-22T05:11:11.823Z,3.55
2023-02-22T05:13:38.456Z,2.70
2023-02-22T05:16:05.763Z,3.38
2023-02-22T05:18:32.482Z,3.05
2023-02-22T05:20:59.109Z,3.13
2023-02-22T05:23:25.786Z,2.53
2023-02-22T05:25:52.522Z,3.10
2023-02-22T05:28:19.221Z,3.55
2023-02-22T05:30:46.319Z,2.60
2023-02-22T05:33:13.295Z,3.05
2023-02-22T05:35:40.221Z,2.78
2023-02-22T05:38:07.638Z,2.55
2023-02-22T05:40:34.802Z,2.25
2023-02-22T05:43:02.294Z,3.05
2023-02-22T05:45:29.595Z,2.38
2023-02-22T05:47:56.258Z,2.70
2023-02-22T05:50:24.580Z,2.70
2023-02-22T05:52:52.012Z,2.53
2023-02-22T05:55:20.775Z,3.20
2023-02-22T05:57:47.444Z,3.28
2023-02-22T06:00:17.771Z,3.00
2023-02-22T06:02:44.428Z,3.35
2023-02-22T06:05:11.345Z,2.50
2023-02-22T06:07:38.170Z,3.30
2023-02-22T06:10:05.443Z,3.63
2023-02-22T06:12:32.046Z,2.83
2023-02-22T06:14:58.710Z,3.08
2023-02-22T06:17:25.340Z,2.85
2023-02-22T06:19:51.991Z,4.03
2023-02-22T06:22:19.764Z,3.72
2023-02-22T06:24:46.442Z,3.90
2023-02-22T06:27:13.278Z,2.88
2023-02-22T06:29:40.000Z,3.25
2023-02-22T06:32:06.693Z,3.25
2023-02-22T06:34:33.446Z,2.88
2023-02-22T06:37:00.770Z,3.72
2023-02-22T06:39:27.418Z,2.83
2023-02-22T06:41:56.069Z,3.10
2023-02-22T06:44:22.775Z,3.38
2023-02-22T06:46:51.306Z,3.45
2023-02-22T06:49:19.528Z,5.00
2023-02-22T06:51:46.364Z,4.32
2023-02-22T06:54:13.042Z,4.68
2023-02-22T06:56:39.671Z,5.20
2023-02-22T06:59:06.365Z,4.55
2023-02-22T07:01:33.060Z,4.25
2023-02-22T07:03:59.806Z,4.68
2023-02-22T07:06:26.416Z,4.22
2023-02-22T07:08:53.065Z,4.22
2023-02-22T07:11:19.770Z,5.47
2023-02-22T07:13:52.532Z,4.63
2023-02-22T07:16:19.239Z,4.38
2023-02-22T07:18:46.425Z,4.13
2023-02-22T07:21:13.054Z,4.13
2023-02-22T07:23:42.705Z,4.43
2023-02-22T07:26:09.335Z,4.65
2023-02-22T07:28:36.044Z,4.55
2023-02-22T07:31:02.924Z,4.05
2023-02-22T07:33:29.612Z,4.55
2023-02-22T07:35:56.235Z,4.38
2023-02-22T07:38:22.956Z,4.20
2023-02-22T07:40:49.607Z,5.03
2023-02-22T07:43:21.429Z,4.28
2023-02-22T07:45:50.401Z,4.25
2023-02-22T07:48:18.721Z,4.70
2023-02-22T07:50:45.725Z,4.40
2023-02-22T07:53:23.579Z,4.43
2023-02-22T07:55:51.276Z,4.45
2023-02-22T07:58:20.548Z,4.82
2023-02-22T08:00:49.990Z,4.35
2023-02-22T08:03:19.285Z,4.97
2023-02-22T08:05:48.703Z,4.57
2023-02-22T08:08:18.197Z,4.25
2023-02-22T08:10:46.597Z,4.53
2023-02-22T08:13:13.409Z,4.38
2023-02-22T08:15:41.503Z,5.65
2023-02-22T08:18:10.547Z,5.63
2023-02-22T08:20:38.441Z,4.65
2023-02-22T08:23:06.801Z,4.85
2023-02-22T08:25:33.965Z,3.90
2023-02-22T08:28:03.253Z,4.03
2023-02-22T08:30:31.333Z,4.50
2023-02-22T08:32:58.615Z,3.50
2023-02-22T08:35:25.535Z,3.92
2023-02-22T08:37:55.508Z,4.22
2023-02-22T08:40:25.234Z,3.85
2023-02-22T08:42:52.222Z,3.97
2023-02-22T08:45:18.900Z,4.75
2023-02-22T08:47:45.748Z,4.45
2023-02-22T08:50:42.065Z,4.75
2023-02-22T08:53:09.695Z,4.68
2023-02-22T08:55:37.983Z,4.53
2023-02-22T08:58:06.068Z,4.10
2023-02-22T09:00:34.038Z,3.60
2023-02-22T09:03:05.436Z,5.80
2023-02-22T09:05:32.391Z,3.80
2023-02-22T09:07:59.538Z,3.88
2023-02-22T09:10:30.257Z,4.28
2023-02-22T09:12:57.476Z,4.15
2023-02-22T09:15:25.153Z,4.88
2023-02-22T09:17:58.150Z,4.28
2023-02-22T09:20:25.486Z,4.28
2023-02-22T09:22:53.241Z,4.30
2023-02-22T09:25:20.818Z,3.83
2023-02-22T09:27:52.067Z,5.35
2023-02-22T09:30:24.364Z,5.40
2023-02-22T09:32:52.922Z,6.03
2023-02-22T09:35:20.374Z,5.47
2023-02-22T09:37:47.074Z,4.88
2023-02-22T09:40:25.144Z,4.75
2023-02-22T09:43:17.065Z,4.13
2023-02-22T09:46:12.245Z,4.72
2023-02-22T09:49:05.333Z,5.03
2023-02-22T09:51:37.980Z,5.05
2023-02-22T09:54:06.815Z,5.75
2023-02-22T09:56:34.329Z,4.05
2023-02-22T09:59:04.349Z,4.78
2023-02-22T10:01:35.995Z,5.13
2023-02-22T10:04:13.111Z,4.10
2023-02-22T10:06:42.480Z,3.90
2023-02-22T10:09:09.825Z,4.35
2023-02-22T10:11:42.812Z,3.38
2023-02-22T10:14:34.905Z,3.55
2023-02-22T10:17:11.641Z,3.47
2023-02-22T10:19:48.837Z,3.08
2023-02-22T10:22:21.049Z,3.55
2023-02-22T10:25:12.995Z,3.22
2023-02-22T10:27:42.784Z,4.20
2023-02-22T10:30:41.991Z,3.08
2023-02-22T10:33:14.816Z,3.42
2023-02-22T10:35:41.993Z,3.75
2023-02-22T10:38:15.068Z,3.72
2023-02-22T10:40:44.881Z,3.25
2023-02-22T10:43:11.752Z,3.85
2023-02-22T10:45:38.916Z,3.72
2023-02-22T10:48:11.752Z,3.38
2023-02-22T10:50:41.454Z,3.80
2023-02-22T10:53:09.625Z,3.53
2023-02-22T10:55:36.682Z,4.07
2023-02-22T10:58:07.045Z,3.83
2023-02-22T11:00:40.121Z,3.42
2023-02-22T11:03:17.766Z,3.13
2023-02-22T11:05:45.011Z,2.95
2023-02-22T11:08:33.275Z,2.88
2023-02-22T11:11:26.672Z,2.88
2023-02-22T11:13:57.193Z,2.90
2023-02-22T11:16:33.101Z,4.00
2023-02-22T11:19:13.157Z,2.97
2023-02-22T11:21:39.859Z,3.30
2023-02-22T11:24:09.904Z,3.10
2023-02-22T11:26:38.660Z,2.92
2023-02-22T11:29:11.352Z,3.40
2023-02-22T11:31:43.191Z,3.25
2023-02-22T11:34:44.051Z,2.78
2023-02-22T11:37:22.464Z,2.80
2023-02-22T11:40:05.608Z,2.72
2023-02-22T11:42:32.399Z,2.92
2023-02-22T11:45:21.575Z,2.63
2023-02-22T11:47:52.672Z,2.58
2023-02-22T11:50:33.776Z,2.53
2023-02-22T11:53:50.371Z,2.70
2023-02-22T11:56:35.750Z,2.33
2023-02-22T11:59:36.740Z,3.33
2023-02-22T12:02:22.313Z,3.15
2023-02-22T12:04:59.179Z,3.28
2023-02-22T12:07:37.197Z,3.38
2023-02-22T12:10:20.968Z,2.65
2023-02-22T12:13:06.378Z,3.15
2023-02-22T12:15:56.357Z,2.92
2023-02-22T12:18:32.817Z,3.20
2023-02-22T12:21:03.320Z,3.10
2023-02-22T12:23:46.506Z,2.30
2023-02-22T12:26:20.432Z,2.63
2023-02-22T12:28:51.532Z,2.80
2023-02-22T12:31:29.508Z,2.63
2023-02-22T12:34:14.009Z,2.88
2023-02-22T12:36:47.453Z,3.05
2023-02-22T12:39:25.526Z,2.97
2023-02-22T12:41:55.517Z,3.95
2023-02-22T12:44:27.222Z,2.72
2023-02-22T12:46:56.889Z,2.97
2023-02-22T12:49:43.548Z,2.50
2023-02-22T12:52:22.074Z,2.63
2023-02-22T12:54:59.571Z,2.58
2023-02-22T12:57:30.525Z,2.67
2023-02-22T13:00:23.381Z,2.30
2023-02-22T13:03:00.849Z,2.40
2023-02-22T13:05:35.186Z,2.28
2023-02-22T13:08:23.679Z,2.38
2023-02-22T13:11:09.142Z,3.10
2023-02-22T13:13:55.625Z,2.40
2023-02-22T13:16:32.233Z,2.47
2023-02-22T13:19:40.312Z,2.75
2023-02-22T13:22:21.337Z,2.97
2023-02-22T13:24:56.742Z,2.92
2023-02-22T13:27:26.902Z,2.60
2023-02-22T13:30:02.890Z,2.45
2023-02-22T13:32:51.589Z,2.42
2023-02-22T13:35:43.262Z,2.72
2023-02-22T13:38:38.481Z,2.30
2023-02-22T13:41:20.724Z,2.30
2023-02-22T13:43:55.334Z,3.53
2023-02-22T13:46:44.752Z,2.80
2023-02-22T13:49:21.211Z,2.58
2023-02-22T13:51:49.387Z,2.85
2023-02-22T13:54:40.852Z,2.83
2023-02-22T13:57:23.009Z,2.20
2023-02-22T14:00:15.228Z,2.22
2023-02-22T14:02:57.164Z,2.38
2023-02-22T14:05:42.598Z,2.65
2023-02-22T14:08:36.755Z,2.40
2023-02-22T14:11:13.896Z,2.08
2023-02-22T14:13:53.811Z,2.65
2023-02-22T14:16:23.543Z,2.10
2023-02-22T14:19:02.155Z,2.50
2023-02-22T14:21:28.866Z,1.83
2023-02-22T14:24:08.126Z,1.95
2023-02-22T14:26:36.542Z,2.15
2023-02-22T14:29:09.160Z,2.10
2023-02-22T14:31:43.507Z,2.75
2023-02-22T14:34:11.976Z,2.40
2023-02-22T14:36:56.396Z,2.58
2023-02-22T14:39:33.195Z,3.10
2023-02-22T14:42:04.570Z,2.50
2023-02-22T14:44:40.084Z,2.83
2023-02-22T14:47:08.663Z,1.90
2023-02-22T14:49:43.241Z,2.03
2023-02-22T14:52:24.314Z,2.33
2023-02-22T14:55:04.501Z,2.45
2023-02-22T14:57:42.374Z,2.75
2023-02-22T15:00:23.263Z,2.00
2023-02-22T15:02:57.343Z,2.67
2023-02-22T15:05:24.205Z,2.20
2023-02-22T15:08:00.630Z,2.20
2023-02-22T15:10:32.288Z,2.33
2023-02-22T15:13:10.714Z,2.50
2023-02-22T15:15:47.542Z,1.90
2023-02-22T15:18:22.659Z,2.13
2023-02-22T15:20:56.180Z,2.15
2023-02-22T15:23:27.162Z,2.50
2023-02-22T15:25:54.192Z,2.17
2023-02-22T15:28:29.499Z,1.83
2023-02-22T15:31:15.307Z,2.00
2023-02-22T15:33:42.236Z,2.42
2023-02-22T15:36:14.438Z,2.75
2023-02-22T15:38:51.672Z,2.50
2023-02-22T15:41:28.726Z,3.05
2023-02-22T15:44:07.906Z,2.38
2023-02-22T15:46:40.730Z,2.83
2023-02-22T15:49:10.375Z,1.95
2023-02-22T15:51:39.158Z,2.70
2023-02-22T15:54:13.221Z,3.40
2023-02-22T15:56:51.636Z,2.35
2023-02-22T15:59:18.930Z,2.47
2023-02-22T16:01:47.320Z,2.58
2023-02-22T16:04:22.939Z,2.70
2023-02-22T16:06:52.336Z,2.05
2023-02-22T16:09:30.333Z,2.75
2023-02-22T16:12:27.582Z,2.25
2023-02-22T16:14:54.844Z,2.70
2023-02-22T16:17:24.929Z,2.50
2023-02-22T16:19:52.950Z,3.47
2023-02-22T16:22:36.367Z,2.63
2023-02-22T16:25:35.574Z,2.80
2023-02-22T16:28:09.825Z,4.53
2023-02-22T16:30:40.519Z,2.30
2023-02-22T16:33:13.930Z,2.22
2023-02-22T16:35:40.803Z,2.20
2023-02-22T16:38:17.029Z,2.28
2023-02-22T16:40:55.260Z,2.55
2023-02-22T16:43:24.879Z,2.83
2023-02-22T16:45:53.292Z,2.47
2023-02-22T16:48:22.551Z,2.50
2023-02-22T16:50:51.453Z,3.35
2023-02-22T16:53:21.561Z,1.88
2023-02-22T16:55:48.606Z,2.35
2023-02-22T16:58:16.512Z,2.50
2023-02-22T17:00:43.729Z,2.05
2023-02-22T17:03:15.264Z,2.35
2023-02-22T17:05:42.105Z,2.85
2023-02-22T17:08:08.917Z,2.88
2023-02-22T17:10:35.737Z,3.20
2023-02-22T17:13:16.198Z,2.25
2023-02-22T17:15:48.435Z,2.40
2023-02-22T17:18:16.768Z,2.50
2023-02-22T17:20:45.134Z,2.35
2023-02-22T17:23:12.457Z,2.63
2023-02-22T17:25:44.483Z,2.50
2023-02-22T17:28:11.761Z,3.10
2023-02-22T17:30:38.818Z,2.80
2023-02-22T17:33:07.643Z,3.85
2023-02-22T17:35:38.971Z,2.55
2023-02-22T17:38:10.105Z,2.53
2023-02-22T17:40:39.289Z,3.17
2023-02-22T17:43:08.885Z,2.55
2023-02-22T17:45:39.074Z,2.95
2023-02-22T17:48:06.203Z,2.53
2023-02-22T17:50:39.054Z,2.55
2023-02-22T17:53:06.466Z,2.75
2023-02-22T17:55:34.469Z,2.50
2023-02-22T17:58:01.252Z,3.55
2023-02-22T18:00:34.380Z,3.25
2023-02-22T18:03:03.958Z,3.03
2023-02-22T18:05:33.150Z,3.63
2023-02-22T18:08:00.150Z,2.90
2023-02-22T18:10:27.103Z,3.58
2023-02-22T18:12:54.103Z,3.25
2023-02-22T18:15:28.301Z,3.92
2023-02-22T18:17:56.073Z,3.65
2023-02-22T18:20:38.298Z,3.25
2023-02-22T18:23:09.320Z,3.55
2023-02-22T18:25:37.422Z,3.80
2023-02-22T18:28:06.447Z,3.28
2023-02-22T18:30:35.995Z,2.88
2023-02-22T18:33:03.895Z,3.30
2023-02-22T18:35:31.692Z,3.85
2023-02-22T18:37:58.529Z,3.70
2023-02-22T18:40:25.227Z,3.00
2023-02-22T18:42:52.006Z,3.47
2023-02-22T18:45:19.424Z,3.05
2023-02-22T18:47:46.217Z,3.03
2023-02-22T18:50:17.313Z,3.00
2023-02-22T18:52:47.469Z,3.30
2023-02-22T18:55:18.989Z,2.92
2023-02-22T18:57:46.423Z,2.95
2023-02-22T19:00:17.081Z,2.58
2023-02-22T19:02:46.783Z,3.08
2023-02-22T19:05:17.443Z,3.20
2023-02-22T19:07:44.994Z,2.95
2023-02-22T19:10:11.623Z,2.92
2023-02-22T19:12:38.413Z,3.20
2023-02-22T19:15:05.418Z,3.33
2023-02-22T19:17:32.777Z,3.38
2023-02-22T19:19:59.442Z,3.28
2023-02-22T19:22:26.765Z,8.38
2023-02-22T19:24:54.336Z,11.63
2023-02-22T19:27:21.771Z,25.98
2023-02-22T19:29:49.414Z,20.63
2023-02-22T19:32:17.637Z,9.00
2023-02-22T19:34:44.696Z,6.55
2023-02-22T19:37:13.256Z,4.65
2023-02-22T19:39:43.646Z,4.82
2023-02-22T19:42:10.540Z,3.78
2023-02-22T19:44:37.908Z,3.72
2023-02-22T19:47:09.347Z,4.50
2023-02-22T19:49:37.484Z,3.63
2023-02-22T19:52:06.689Z,3.30
2023-02-22T19:54:33.474Z,3.75
2023-02-22T19:57:00.732Z,3.75
2023-02-22T19:59:27.584Z,4.03
2023-02-22T20:01:54.984Z,2.63
2023-02-22T20:04:22.994Z,3.15
2023-02-22T20:06:54.475Z,3.42
2023-02-22T20:09:30.527Z,3.40
2023-02-22T20:11:57.507Z,2.90
2023-02-22T20:14:28.606Z,3.97
2023-02-22T20:16:56.990Z,3.45
2023-02-22T20:19:26.770Z,2.95
2023-02-22T20:21:57.876Z,2.85
2023-02-22T20:24:25.243Z,2.80
2023-02-22T20:26:55.820Z,3.05
2023-02-22T20:29:31.608Z,3.00
2023-02-22T20:32:03.417Z,2.58
2023-02-22T20:34:33.970Z,2.58
2023-02-22T20:37:01.125Z,2.55
2023-02-22T20:39:28.059Z,2.72
2023-02-22T20:41:54.838Z,2.30
2023-02-22T20:44:21.679Z,2.50
2023-02-22T20:46:48.967Z,2.58
2023-02-22T20:49:18.841Z,2.60
2023-02-22T20:51:46.561Z,3.30
2023-02-22T20:54:13.663Z,2.83
2023-02-22T20:56:42.690Z,3.00
2023-02-22T20:59:14.934Z,3.45
2023-02-22T21:01:42.307Z,3.67
2023-02-22T21:04:13.722Z,3.20
2023-02-22T21:06:40.904Z,3.75
2023-02-22T21:09:12.621Z,3.65
2023-02-22T21:11:40.201Z,3.72
2023-02-22T21:14:06.978Z,4.68
2023-02-22T21:16:36.066Z,4.53
2023-02-22T21:19:04.922Z,3.85
2023-02-22T21:21:32.140Z,4.50
2023-02-22T21:24:02.285Z,4.13
2023-02-22T21:26:33.802Z,4.63
2023-02-22T21:29:04.916Z,4.60
2023-02-22T21:31:32.727Z,4.88
2023-02-22T21:34:04.267Z,4.30
2023-02-22T21:36:32.115Z,4.78
2023-02-22T21:39:01.922Z,4.32
2023-02-22T21:41:29.994Z,5.25
2023-02-22T21:43:58.166Z,4.93
2023-02-22T21:46:26.384Z,5.10
2023-02-22T21:48:53.283Z,4.60
2023-02-22T21:51:31.704Z,5.20
2023-02-22T21:54:03.598Z,5.07
2023-02-22T21:56:34.398Z,5.70
2023-02-22T21:59:03.833Z,5.38
2023-02-22T22:01:36.808Z,5.40
2023-02-22T22:04:04.573Z,4.82
2023-02-22T22:06:33.319Z,5.13
2023-02-22T22:09:00.360Z,5.53
2023-02-22T22:11:27.652Z,5.32
2023-02-22T22:13:58.964Z,5.40
2023-02-22T22:16:33.212Z,5.20
2023-02-22T22:19:00.020Z,5.63
2023-02-22T22:21:26.732Z,4.43
2023-02-22T22:23:57.460Z,5.72
2023-02-22T22:26:25.290Z,5.13
2023-02-22T22:28:54.401Z,5.53
2023-02-22T22:31:23.659Z,6.18
2023-02-22T22:33:50.905Z,5.88
2023-02-22T22:36:19.780Z,5.90
2023-02-22T22:38:47.213Z,5.80
2023-02-22T22:41:15.854Z,5.18
2023-02-22T22:43:48.503Z,6.05
2023-02-22T22:46:17.192Z,6.65
2023-02-22T22:48:47.129Z,6.35
2023-02-22T22:51:18.508Z,6.05
2023-02-22T22:53:47.047Z,6.07
2023-02-22T22:56:17.519Z,6.18
2023-02-22T22:58:51.548Z,6.22
2023-02-22T23:01:20.749Z,6.88
2023-02-22T23:03:55.110Z,7.03
2023-02-22T23:06:25.083Z,6.97
2023-02-22T23:09:00.210Z,7.13
2023-02-22T23:11:33.726Z,7.20
2023-02-22T23:14:03.255Z,6.70
2023-02-22T23:16:32.300Z,7.55
2023-02-22T23:18:59.287Z,7.45
2023-02-22T23:21:25.965Z,7.78
2023-02-22T23:23:58.860Z,6.72
2023-02-22T23:26:26.954Z,7.65
2023-02-22T23:28:56.094Z,7.38
2023-02-22T23:31:23.876Z,8.05
2023-02-22T23:33:51.237Z,8.38
2023-02-22T23:36:18.823Z,8.40
2023-02-22T23:38:46.131Z,8.55
2023-02-22T23:41:16.603Z,8.35
2023-02-22T23:43:45.298Z,7.65
2023-02-22T23:46:14.212Z,7.45
2023-02-22T23:48:46.815Z,8.40
2023-02-22T23:51:16.020Z,7.68
2023-02-22T23:53:55.765Z,8.35
2023-02-22T23:56:27.063Z,8.38
2023-02-22T23:58:57.444Z,8.18
